Time;durP1;ratioP1;P1;durP2;ratioP2;P2;SDS_P1;SDS_P2;PMS_P1;PMS_P2;Temp;Humidity;BMP_temperature;BMP_pressure;BME280_temperature;BME280_humidity;BME280_pressure;Samples;Min_cycle;Max_cycle;Signal;HPM_P1;HPM_P2
2023/07/06 00:00:43;;;;;;;;;;;;;;;19.50;52.76;99702.94;10244076;28;928;-67
2023/07/06 00:05:44;;;;;;;;;;;;;;;19.51;52.49;99709.06;10244406;28;915;-66
2023/07/06 00:10:42;;;;;;;;;;;;;;;19.51;52.66;99709.06;10243588;28;872;-67
2023/07/06 00:15:43;;;;;;;;;;;;;;;19.49;52.69;99706.50;10244666;28;1949;-67
2023/07/06 00:20:40;;;;;;;;;;;;;;;19.51;52.59;99719.63;10243693;28;780;-67
2023/07/06 00:25:41;;;;;;;;;;;;;;;19.50;52.55;99716.16;10243965;28;946;-66
2023/07/06 00:30:54;;;;;;;;;;;;;;;19.47;52.47;99717.16;10242327;28;1109;-68
2023/07/06 00:35:52;;;;;;;;;;;;;;;19.49;52.80;99717.94;10243064;28;1965;-66
2023/07/06 00:40:50;;;;;;;;;;;;;;;19.49;52.54;99722.34;10243603;28;794;-66
2023/07/06 00:45:47;;;;;;;;;;;;;;;19.46;52.54;99718.06;10242950;28;878;-64
2023/07/06 00:50:44;;;;;;;;;;;;;;;19.47;52.63;99718.97;10245543;28;962;-70
2023/07/06 00:55:42;;;;;;;;;;;;;;;19.44;52.69;99711.16;10250547;28;1886;-70
2023/07/06 01:00:40;;;;;;;;;;;;;;;19.43;52.32;99710.31;10249834;28;909;-70
2023/07/06 01:05:38;;;;;;;;;;;;;;;19.42;52.56;99718.34;10250198;28;1670;-70
2023/07/06 01:10:38;;;;;;;;;;;;;;;19.44;52.42;99721.72;10249375;28;884;-70
2023/07/06 01:15:37;;;;;;;;;;;;;;;19.41;52.71;99719.25;10249195;28;1945;-70
2023/07/06 01:20:34;;;;;;;;;;;;;;;19.41;52.54;99720.13;10249013;28;978;-70
2023/07/06 01:25:32;;;;;;;;;;;;;;;19.41;52.32;99713.97;10249577;28;870;-70
2023/07/06 01:30:29;;;;;;;;;;;;;;;19.40;52.44;99712.25;10248655;28;958;-70
2023/07/06 01:35:27;;;;;;;;;;;;;;;19.41;52.38;99706.03;10247668;28;1973;-70
2023/07/06 01:40:24;;;;;;;;;;;;;;;19.40;52.30;99718.41;10248348;28;895;-70
2023/07/06 01:45:22;;;;;;;;;;;;;;;19.39;52.35;99715.84;10248121;28;826;-70
2023/07/06 01:50:19;;;;;;;;;;;;;;;19.39;52.33;99719.34;10248092;28;880;-70
2023/07/06 01:55:20;;;;;;;;;;;;;;;19.39;52.35;99721.13;10248443;28;1914;-70
2023/07/06 02:00:19;;;;;;;;;;;;;;;19.38;52.51;99720.25;10247341;28;874;-70
2023/07/06 02:05:16;;;;;;;;;;;;;;;19.38;52.27;99720.25;10247305;28;896;-70
2023/07/06 02:10:14;;;;;;;;;;;;;;;19.37;52.26;99717.72;10247185;28;775;-70
2023/07/06 02:15:12;;;;;;;;;;;;;;;19.36;52.39;99719.50;10247326;28;1907;-70
2023/07/06 02:20:11;;;;;;;;;;;;;;;19.37;52.21;99712.41;10247895;28;834;-70
2023/07/06 02:25:08;;;;;;;;;;;;;;;19.36;52.24;99722.13;10246697;28;852;-70
2023/07/06 02:30:06;;;;;;;;;;;;;;;19.34;52.23;99720.50;10246409;28;822;-70
2023/07/06 02:35:04;;;;;;;;;;;;;;;19.33;52.34;99719.63;10247285;28;1910;-70
2023/07/06 02:40:01;;;;;;;;;;;;;;;19.33;52.12;99721.41;10245943;28;878;-70
2023/07/06 02:44:59;;;;;;;;;;;;;;;19.31;52.22;99718.88;10246489;28;868;-70
2023/07/06 02:49:57;;;;;;;;;;;;;;;19.33;52.20;99726.69;10245091;28;1011;-70
2023/07/06 02:54:54;;;;;;;;;;;;;;;19.31;52.21;99716.22;10245593;28;1951;-70
2023/07/06 02:59:56;;;;;;;;;;;;;;;19.31;52.42;99718.00;10245201;28;950;-70
2023/07/06 03:04:53;;;;;;;;;;;;;;;19.30;52.21;99722.44;10245060;28;978;-70
2023/07/06 03:09:51;;;;;;;;;;;;;;;19.30;52.29;99727.72;10245525;28;988;-70
2023/07/06 03:14:48;;;;;;;;;;;;;;;19.30;52.31;99730.34;10244168;28;1890;-70
2023/07/06 03:19:46;;;;;;;;;;;;;;;19.31;52.32;99728.56;10244638;28;899;-70
2023/07/06 03:24:44;;;;;;;;;;;;;;;19.29;52.32;99731.31;10245250;28;818;-70
2023/07/06 03:29:41;;;;;;;;;;;;;;;19.29;52.23;99733.94;10244621;28;801;-70
2023/07/06 03:34:39;;;;;;;;;;;;;;;19.28;52.31;99734.84;10244713;28;1115;-70
2023/07/06 03:39:36;;;;;;;;;;;;;;;19.27;52.29;99738.44;10244189;28;1951;-70
2023/07/06 03:44:34;;;;;;;;;;;;;;;19.27;52.32;99733.16;10244673;28;801;-70
2023/07/06 03:49:34;;;;;;;;;;;;;;;19.26;52.26;99742.03;10243370;28;896;-70
2023/07/06 03:54:31;;;;;;;;;;;;;;;19.25;52.34;99740.28;10243905;28;894;-70
2023/07/06 03:59:31;;;;;;;;;;;;;;;19.24;52.23;99744.72;10243659;28;1973;-70
2023/07/06 04:04:29;;;;;;;;;;;;;;;19.24;52.38;99743.88;10243641;28;884;-70
2023/07/06 04:09:28;;;;;;;;;;;;;;;19.23;52.25;99753.59;10243476;28;886;-70
2023/07/06 04:14:25;;;;;;;;;;;;;;;19.23;52.26;99760.66;10243518;28;982;-70
2023/07/06 04:19:23;;;;;;;;;;;;;;;19.21;52.35;99765.19;10243920;28;1890;-70
2023/07/06 04:24:21;;;;;;;;;;;;;;;19.20;52.38;99760.81;10246873;28;780;-70
2023/07/06 04:29:20;;;;;;;;;;;;;;;19.21;52.42;99765.19;10251630;28;967;-70
2023/07/06 04:34:18;;;;;;;;;;;;;;;19.26;52.10;99763.16;10251806;28;1382;-70
2023/07/06 04:39:15;;;;;;;;;;;;;;;19.31;52.12;99757.63;10251439;28;1914;-70
2023/07/06 04:44:13;;;;;;;;;;;;;;;19.32;52.09;99757.56;10250543;28;993;-69
2023/07/06 04:49:10;;;;;;;;;;;;;;;19.33;51.96;99764.56;10250351;28;782;-68
2023/07/06 04:54:08;;;;;;;;;;;;;;;19.36;52.01;99769.72;10250910;28;829;-70
2023/07/06 04:59:06;;;;;;;;;;;;;;;19.39;51.82;99769.56;10250456;28;1956;-70
2023/07/06 05:04:03;;;;;;;;;;;;;;;19.44;51.92;99783.41;10249783;28;771;-71
2023/07/06 05:09:04;;;;;;;;;;;;;;;19.46;51.84;99776.22;10249335;28;953;-71
2023/07/06 05:14:02;;;;;;;;;;;;;;;19.47;51.77;99780.59;10249347;28;864;-70
2023/07/06 05:18:59;;;;;;;;;;;;;;;19.48;51.67;99782.31;10249188;28;1902;-71
2023/07/06 05:23:57;;;;;;;;;;;;;;;19.51;51.83;99777.81;10249652;28;885;-70
2023/07/06 05:28:54;;;;;;;;;;;;;;;19.53;51.74;99784.72;10248789;28;787;-70
2023/07/06 05:33:52;;;;;;;;;;;;;;;19.55;51.66;99782.00;10248869;28;1157;-71
2023/07/06 05:38:49;;;;;;;;;;;;;;;19.56;51.64;99787.22;10247962;28;1967;-70
2023/07/06 05:43:47;;;;;;;;;;;;;;;19.57;51.60;99788.06;10248293;28;932;-70
2023/07/06 05:48:44;;;;;;;;;;;;;;;19.63;51.54;99791.28;10248655;28;956;-67
2023/07/06 05:53:42;;;;;;;;;;;;;;;19.62;51.43;99793.97;10248471;28;972;-66
2023/07/06 05:58:40;;;;;;;;;;;;;;;19.59;51.58;99791.50;10247842;28;1890;-65
2023/07/06 06:03:40;;;;;;;;;;;;;;;19.56;51.03;99800.44;10246922;28;1038;-67
2023/07/06 06:08:38;;;;;;;;;;;;;;;19.51;51.39;99810.38;10248078;28;862;-67
2023/07/06 06:13:35;;;;;;;;;;;;;;;19.55;51.77;99822.53;10246493;28;1000;-66
2023/07/06 06:18:33;;;;;;;;;;;;;;;19.49;51.64;99826.34;10246317;28;1894;-67
2023/07/06 06:23:32;;;;;;;;;;;;;;;19.53;51.65;99834.09;10246678;28;781;-67
2023/07/06 06:28:30;;;;;;;;;;;;;;;19.54;52.01;99839.31;10246608;28;904;-71
2023/07/06 06:33:27;;;;;;;;;;;;;;;19.56;51.86;99841.88;10245731;28;1536;-66
2023/07/06 06:38:25;;;;;;;;;;;;;;;19.58;52.22;99846.16;10246344;28;1940;-66
2023/07/06 06:43:23;;;;;;;;;;;;;;;19.60;51.69;99851.38;10245998;28;809;-71
2023/07/06 06:48:20;;;;;;;;;;;;;;;19.61;51.67;99856.59;10244789;28;903;-65
2023/07/06 06:53:18;;;;;;;;;;;;;;;19.63;51.80;99856.53;10246716;28;867;-66
2023/07/06 06:58:15;;;;;;;;;;;;;;;19.65;52.18;99854.66;10245811;28;1918;-67
2023/07/06 07:03:14;;;;;;;;;;;;;;;19.67;51.99;99855.47;10244622;28;1060;-67
2023/07/06 07:08:12;;;;;;;;;;;;;;;19.68;51.89;99860.69;10245047;28;922;-67
2023/07/06 07:13:10;;;;;;;;;;;;;;;19.67;51.77;99866.88;10244957;28;775;-67
2023/07/06 07:18:09;;;;;;;;;;;;;;;19.66;51.47;99859.91;10244700;28;1890;-67
2023/07/06 07:23:06;;;;;;;;;;;;;;;19.69;51.89;99869.47;10244566;28;893;-67
2023/07/06 07:28:05;;;;;;;;;;;;;;;19.69;51.82;99861.53;10245011;28;814;-67
2023/07/06 07:33:03;;;;;;;;;;;;;;;19.71;51.87;99870.25;10244859;28;1676;-67
2023/07/06 07:38:01;;;;;;;;;;;;;;;19.72;51.67;99869.31;10244770;28;1914;-67
2023/07/06 07:42:59;;;;;;;;;;;;;;;19.73;51.60;99884.25;10244058;28;1004;-67
2023/07/06 07:47:56;;;;;;;;;;;;;;;19.73;51.69;99873.69;10243491;28;771;-67
2023/07/06 07:52:54;;;;;;;;;;;;;;;19.74;51.64;99878.03;10244438;28;842;-67
2023/07/06 07:57:52;;;;;;;;;;;;;;;19.74;51.52;99878.03;10244786;28;1898;-67
2023/07/06 08:02:52;;;;;;;;;;;;;;;19.73;51.48;99878.97;10252149;28;868;-67
2023/07/06 08:07:50;;;;;;;;;;;;;;;19.76;51.72;99867.38;10251388;28;775;-67
2023/07/06 08:12:48;;;;;;;;;;;;;;;19.76;51.81;99868.25;10251746;28;874;-67
2023/07/06 08:17:46;;;;;;;;;;;;;;;19.77;51.56;99864.66;10251379;28;1902;-67
2023/07/06 08:22:46;;;;;;;;;;;;;;;19.79;51.71;99867.22;10252204;28;799;-67
2023/07/06 08:27:44;;;;;;;;;;;;;;;19.79;51.56;99872.53;10251574;28;927;-67
2023/07/06 08:32:41;;;;;;;;;;;;;;;19.79;51.54;99877.81;10250553;28;1272;-67
2023/07/06 08:37:39;;;;;;;;;;;;;;;19.78;51.35;99884.91;10251369;28;1966;-67
2023/07/06 08:42:37;;;;;;;;;;;;;;;19.78;51.34;99891.94;10250636;28;984;-67
2023/07/06 08:47:37;;;;;;;;;;;;;;;19.78;51.15;99889.31;10250304;28;875;-67
2023/07/06 08:52:34;;;;;;;;;;;;;;;19.77;51.18;99888.44;10250173;28;911;-67
2023/07/06 08:57:32;;;;;;;;;;;;;;;19.78;51.24;99884.00;10250021;28;1890;-67
2023/07/06 09:02:29;;;;;;;;;;;;;;;19.80;51.20;99890.09;10249722;28;953;-67
2023/07/06 09:07:27;;;;;;;;;;;;;;;19.80;51.28;99893.59;10249684;28;967;-67
2023/07/06 09:12:24;;;;;;;;;;;;;;;19.80;51.23;99893.59;10249247;28;908;-67
2023/07/06 09:17:23;;;;;;;;;;;;;;;19.81;51.38;99897.13;10249259;28;1980;-67
2023/07/06 09:22:22;;;;;;;;;;;;;;;19.80;51.32;99901.53;10249025;28;802;-67
2023/07/06 09:27:20;;;;;;;;;;;;;;;19.79;51.20;99893.69;10248953;28;894;-66
2023/07/06 09:32:19;;;;;;;;;;;;;;;19.79;51.37;99894.53;10248685;28;1280;-67
2023/07/06 09:37:17;;;;;;;;;;;;;;;19.75;51.45;99892.94;10248454;28;1969;-66
2023/07/06 09:42:15;;;;;;;;;;;;;;;19.76;51.28;99899.97;10248420;28;817;-66
2023/07/06 09:47:12;;;;;;;;;;;;;;;19.75;51.06;99898.25;10248864;28;949;-66
2023/07/06 09:52:10;;;;;;;;;;;;;;;19.76;51.02;99899.97;10248581;28;819;-66
2023/07/06 09:57:08;;;;;;;;;;;;;;;19.74;51.19;99900.97;10247717;28;1898;-66
2023/07/06 10:02:05;;;;;;;;;;;;;;;19.73;51.21;99899.25;10248327;28;879;-66
2023/07/06 10:07:05;;;;;;;;;;;;;;;19.72;51.28;99898.41;10247447;28;809;-66
2023/07/06 10:12:03;;;;;;;;;;;;;;;19.72;50.75;99906.34;10247311;28;876;-66
2023/07/06 10:17:01;;;;;;;;;;;;;;;19.73;50.77;99897.50;10247906;28;1902;-66
2023/07/06 10:21:59;;;;;;;;;;;;;;;19.73;50.99;99907.19;10246823;28;870;-69
2023/07/06 10:26:57;;;;;;;;;;;;;;;19.77;50.95;99899.03;10247341;28;944;-66
2023/07/06 10:31:55;;;;;;;;;;;;;;;19.78;51.11;99906.06;10246535;28;1135;-66
2023/07/06 10:36:53;;;;;;;;;;;;;;;19.79;51.23;99899.81;10246208;28;1968;-66
2023/07/06 10:41:50;;;;;;;;;;;;;;;19.80;51.16;99904.16;10246108;28;934;-66
2023/07/06 10:46:48;;;;;;;;;;;;;;;19.81;51.32;99903.25;10246686;28;877;-66
2023/07/06 10:51:45;;;;;;;;;;;;;;;19.85;51.19;99903.94;10245706;28;822;-69
2023/07/06 10:56:45;;;;;;;;;;;;;;;19.88;50.97;99898.50;10245526;28;921;-66
2023/07/06 11:01:45;;;;;;;;;;;;;;;19.87;51.33;99908.22;10245397;28;1898;-63
2023/07/06 11:06:43;;;;;;;;;;;;;;;19.83;51.59;99906.69;10244651;28;857;-63
2023/07/06 11:11:42;;;;;;;;;;;;;;;19.79;51.45;99909.56;10245189;28;843;-63
2023/07/06 11:16:41;;;;;;;;;;;;;;;19.77;51.50;99914.06;10244811;28;802;-66
2023/07/06 11:21:38;;;;;;;;;;;;;;;19.79;51.27;99918.34;10244620;28;1953;-66
2023/07/06 11:26:37;;;;;;;;;;;;;;;19.77;51.33;99924.63;10244559;28;881;-66
2023/07/06 11:31:35;;;;;;;;;;;;;;;19.75;51.57;99918.56;10244662;28;1688;-66
2023/07/06 11:36:37;;;;;;;;;;;;;;;19.73;51.53;99931.88;10244039;28;968;-66
2023/07/06 11:41:35;;;;;;;;;;;;;;;19.77;51.38;99928.13;10244209;28;1907;-66
2023/07/06 11:46:32;;;;;;;;;;;;;;;19.70;51.53;99924.06;10244991;28;885;-67
2023/07/06 11:51:30;;;;;;;;;;;;;;;19.76;51.52;99934.38;10244636;28;794;-66
2023/07/06 11:56:39;;;;;;;;;;;;;;;19.79;51.34;99923.63;10244535;28;937;-66
2023/07/06 12:01:42;;;;;;;;;;;;;;;19.72;51.48;99932.78;10244168;28;1894;-66
2023/07/06 12:06:40;;;;;;;;;;;;;;;19.70;51.20;99932.00;10243698;28;752;-66
2023/07/06 12:11:37;;;;;;;;;;;;;;;19.71;51.50;99933.72;10243662;28;799;-66
2023/07/06 12:16:35;;;;;;;;;;;;;;;19.75;51.23;99942.34;10244144;28;823;-66
2023/07/06 12:21:35;;;;;;;;;;;;;;;19.78;51.23;99932.50;10243268;28;1953;-66
2023/07/06 12:26:34;;;;;;;;;;;;;;;19.77;51.13;99937.84;10243073;28;775;-67
2023/07/06 12:31:32;;;;;;;;;;;;;;;19.80;51.21;99927.13;10243261;28;1120;-66
2023/07/06 12:36:31;;;;;;;;;;;;;;;19.77;51.24;99925.47;10243556;28;802;-66
2023/07/06 12:41:28;;;;;;;;;;;;;;;19.75;51.38;99937.91;10242627;28;1910;-66
2023/07/06 12:46:26;;;;;;;;;;;;;;;19.79;51.25;99941.28;10245243;28;913;-66
2023/07/06 12:51:24;;;;;;;;;;;;;;;19.79;51.18;99925.41;10250140;28;928;-66
2023/07/06 12:56:22;;;;;;;;;;;;;;;19.75;51.39;99927.34;10250667;28;826;-63
2023/07/06 13:01:21;;;;;;;;;;;;;;;19.74;51.48;99938.00;10249673;28;1899;-66
2023/07/06 13:06:19;;;;;;;;;;;;;;;19.79;51.62;99936.00;10249565;28;904;-66
2023/07/06 13:11:17;;;;;;;;;;;;;;;19.92;51.18;99923.88;10249247;28;896;-66
2023/07/06 13:16:16;;;;;;;;;;;;;;;19.97;51.08;99921.88;10249107;28;866;-65
2023/07/06 13:21:14;;;;;;;;;;;;;;;19.99;50.78;99921.78;10249835;28;1957;-66
2023/07/06 13:26:11;;;;;;;;;;;;;;;20.04;50.97;99909.16;10248923;28;922;-66
2023/07/06 13:31:12;;;;;;;;;;;;;;;20.08;50.68;99914.25;10248348;28;1173;-66
2023/07/06 13:36:09;;;;;;;;;;;;;;;20.12;50.65;99912.28;10249025;28;857;-66
2023/07/06 13:41:07;;;;;;;;;;;;;;;20.13;50.46;99920.16;10248752;28;1914;-64
2023/07/06 13:46:05;;;;;;;;;;;;;;;20.16;50.56;99919.16;10248791;28;813;-66
2023/07/06 13:51:03;;;;;;;;;;;;;;;20.17;50.56;99920.84;10247913;28;862;-66
2023/07/06 13:56:01;;;;;;;;;;;;;;;20.21;50.69;99921.56;10247156;28;886;-66
2023/07/06 14:00:59;;;;;;;;;;;;;;;20.24;50.39;99919.63;10247479;28;1898;-66
2023/07/06 14:05:57;;;;;;;;;;;;;;;20.24;50.32;99911.69;10247007;28;913;-66
2023/07/06 14:10:54;;;;;;;;;;;;;;;20.12;50.94;99909.63;10248296;28;857;-66
2023/07/06 14:15:52;;;;;;;;;;;;;;;20.10;50.76;99916.81;10247992;28;770;-67
2023/07/06 14:20:50;;;;;;;;;;;;;;;20.08;50.79;99908.94;10247054;28;1957;-66
2023/07/06 14:25:47;;;;;;;;;;;;;;;20.08;51.01;99913.41;10246752;28;855;-66
2023/07/06 14:30:48;;;;;;;;;;;;;;;20.08;51.07;99913.41;10246354;28;1117;-67
2023/07/06 14:35:46;;;;;;;;;;;;;;;20.09;50.97;99920.38;10246700;28;739;-64
2023/07/06 14:40:43;;;;;;;;;;;;;;;20.09;51.28;99920.38;10246839;28;1973;-64
2023/07/06 14:45:41;;;;;;;;;;;;;;;20.09;50.96;99923.03;10246829;28;830;-66
2023/07/06 14:50:38;;;;;;;;;;;;;;;20.08;50.81;99919.53;10244991;28;838;-67
2023/07/06 14:55:36;;;;;;;;;;;;;;;20.08;50.84;99914.25;10245604;28;794;-66
2023/07/06 15:00:34;;;;;;;;;;;;;;;20.08;50.95;99919.53;10245195;28;1890;-67
2023/07/06 15:05:31;;;;;;;;;;;;;;;20.07;51.18;99916.97;10245307;28;775;-66
2023/07/06 15:10:29;;;;;;;;;;;;;;;20.07;51.29;99916.97;10243939;28;987;-65
2023/07/06 15:15:29;;;;;;;;;;;;;;;20.07;51.31;99919.63;10245027;28;1031;-65
2023/07/06 15:20:26;;;;;;;;;;;;;;;20.07;51.40;99919.63;10244487;28;1894;-65
2023/07/06 15:25:24;;;;;;;;;;;;;;;20.08;51.33;99913.41;10244758;28;783;-66
2023/07/06 15:30:24;;;;;;;;;;;;;;;20.09;51.65;99908.00;10215216;28;1925;-67
2023/07/06 15:35:21;;;;;;;;;;;;;;;20.08;51.52;99902.81;10204145;28;1237;-67
2023/07/06 15:40:19;;;;;;;;;;;;;;;20.09;51.61;99904.50;10203944;28;1969;-67
2023/07/06 15:45:16;;;;;;;;;;;;;;;20.10;51.68;99903.59;10203941;28;826;-67
2023/07/06 15:50:15;;;;;;;;;;;;;;;20.11;51.76;99889.41;10203940;28;764;-67
2023/07/06 15:55:13;;;;;;;;;;;;;;;20.12;52.07;99891.13;10203733;28;959;-67
2023/07/06 16:00:10;;;;;;;;;;;;;;;20.12;52.11;99885.81;10203685;28;1902;-67
2023/07/06 16:05:08;;;;;;;;;;;;;;;20.12;52.18;99883.19;10203103;28;1448;-67
2023/07/06 16:10:05;;;;;;;;;;;;;;;20.12;52.14;99888.47;10204436;28;796;-67
2023/07/06 16:15:03;;;;;;;;;;;;;;;20.12;52.30;99886.72;10203728;28;936;-65
2023/07/06 16:20:01;;;;;;;;;;;;;;;20.12;52.20;99884.06;10205196;28;1955;-67
2023/07/06 16:24:58;;;;;;;;;;;;;;;20.13;52.04;99880.47;10211203;28;867;-67
2023/07/06 16:29:56;;;;;;;;;;;;;;;20.13;52.15;99884.91;10211623;28;1135;-67
2023/07/06 16:34:53;;;;;;;;;;;;;;;20.14;51.98;99887.47;10211342;28;1236;-67
2023/07/06 16:39:51;;;;;;;;;;;;;;;20.14;52.11;99889.25;10211064;28;1985;-67
2023/07/06 16:44:49;;;;;;;;;;;;;;;20.13;52.12;99885.75;10211034;28;776;-66
2023/07/06 16:49:46;;;;;;;;;;;;;;;20.15;52.12;99888.34;10209665;28;850;-67
2023/07/06 16:54:44;;;;;;;;;;;;;;;20.14;52.06;99882.16;10210063;28;937;-67
2023/07/06 16:59:41;;;;;;;;;;;;;;;20.16;52.29;99881.25;10209151;28;1958;-67
2023/07/06 17:04:39;;;;;;;;;;;;;;;20.15;52.17;99883.03;10210911;28;787;-67
2023/07/06 17:09:37;;;;;;;;;;;;;;;20.15;52.33;99883.03;10209342;28;888;-67
2023/07/06 17:14:34;;;;;;;;;;;;;;;20.16;52.14;99882.09;10209387;28;890;-67
2023/07/06 17:19:32;;;;;;;;;;;;;;;20.17;52.12;99888.25;10209802;28;1952;-67
2023/07/06 17:24:29;;;;;;;;;;;;;;;20.16;52.32;99884.75;10209621;28;806;-67
2023/07/06 17:29:29;;;;;;;;;;;;;;;20.14;52.18;99882.16;10208517;28;992;-67
2023/07/06 17:34:26;;;;;;;;;;;;;;;20.16;52.25;99886.53;10207069;28;1143;-67
2023/07/06 17:39:24;;;;;;;;;;;;;;;20.15;52.15;99891.00;10208619;28;1964;-67
2023/07/06 17:44:21;;;;;;;;;;;;;;;20.14;52.02;99900.69;10208207;28;829;-67
2023/07/06 17:49:19;;;;;;;;;;;;;;;20.15;52.12;99896.28;10208036;28;890;-67
2023/07/06 17:54:17;;;;;;;;;;;;;;;20.16;52.05;99897.13;10207805;28;960;-67
2023/07/06 17:59:14;;;;;;;;;;;;;;;20.15;52.31;99896.28;10207648;28;1882;-67
2023/07/06 18:04:12;;;;;;;;;;;;;;;20.15;52.29;99898.94;10207955;28;1007;-67
2023/07/06 18:09:09;;;;;;;;;;;;;;;20.14;52.29;99913.94;10207358;28;780;-67
2023/07/06 18:14:07;;;;;;;;;;;;;;;20.16;52.45;99913.00;10207180;28;850;-67
2023/07/06 18:19:05;;;;;;;;;;;;;;;20.15;52.31;99914.81;10189254;28;866;-67
2023/07/06 18:24:02;;;;;;;;;;;;;;;20.15;52.33;99922.75;10206613;28;1964;-67
2023/07/06 18:29:00;;;;;;;;;;;;;;;20.16;52.29;99920.94;10205825;28;856;-66
2023/07/06 18:33:58;;;;;;;;;;;;;;;20.16;52.44;99921.81;10207102;28;1163;-67
2023/07/06 18:38:55;;;;;;;;;;;;;;;20.16;52.41;99927.09;10206682;28;899;-67
2023/07/06 18:43:53;;;;;;;;;;;;;;;20.15;52.25;99925.38;10205822;28;1887;-67
2023/07/06 18:48:50;;;;;;;;;;;;;;;20.15;52.26;99928.03;10206862;28;812;-66
2023/07/06 18:53:48;;;;;;;;;;;;;;;20.16;52.19;99927.09;10205614;28;1027;-67
2023/07/06 18:58:46;;;;;;;;;;;;;;;20.16;52.36;99929.75;10205314;28;903;-67
2023/07/06 19:03:43;;;;;;;;;;;;;;;20.16;52.07;99937.69;10204578;28;1894;-67
2023/07/06 19:08:41;;;;;;;;;;;;;;;20.16;52.27;99934.19;10205739;28;839;-67
2023/07/06 19:13:38;;;;;;;;;;;;;;;20.16;52.18;99939.47;10206372;28;877;-67
2023/07/06 19:18:36;;;;;;;;;;;;;;;20.15;52.18;99935.97;10205553;28;838;-67
2023/07/06 19:23:34;;;;;;;;;;;;;;;20.16;52.26;99947.41;10205381;28;1946;-67
2023/07/06 19:28:31;;;;;;;;;;;;;;;20.16;52.36;99945.63;10204610;28;916;-67
2023/07/06 19:33:29;;;;;;;;;;;;;;;20.15;52.25;99949.22;10205079;28;1434;-67
2023/07/06 19:38:27;;;;;;;;;;;;;;;20.17;52.28;99951.75;10204183;28;842;-67
2023/07/06 19:43:24;;;;;;;;;;;;;;;20.16;52.10;99965.94;10204573;28;1894;-67
2023/07/06 19:48:22;;;;;;;;;;;;;;;20.16;52.16;99977.38;10203980;28;947;-67
2023/07/06 19:53:20;;;;;;;;;;;;;;;20.16;52.18;99973.88;10203905;28;806;-67
2023/07/06 19:58:17;;;;;;;;;;;;;;;20.15;52.41;99980.97;10216112;28;778;-67
2023/07/06 20:03:15;;;;;;;;;;;;;;;20.15;52.32;99986.25;10217234;28;1882;-67
2023/07/06 20:08:13;;;;;;;;;;;;;;;20.14;52.42;99985.38;10217148;28;885;-67
2023/07/06 20:13:11;;;;;;;;;;;;;;;20.15;52.34;100012.72;10217125;28;961;-67
2023/07/06 20:18:08;;;;;;;;;;;;;;;20.14;52.53;100006.56;10217226;28;873;-66
2023/07/06 20:23:06;;;;;;;;;;;;;;;20.14;52.29;100013.63;10216020;28;1890;-68
2023/07/06 20:28:04;;;;;;;;;;;;;;;20.14;52.46;100011.00;10216578;28;882;-67
2023/07/06 20:33:02;;;;;;;;;;;;;;;20.14;52.52;100017.13;10215956;28;1268;-64
2023/07/06 20:38:00;;;;;;;;;;;;;;;20.14;52.43;100017.13;10216964;28;891;-67
2023/07/06 20:42:57;;;;;;;;;;;;;;;20.13;52.60;100026.03;10216224;28;1910;-66
2023/07/06 20:47:56;;;;;;;;;;;;;;;20.14;52.33;100024.22;10216224;28;1101;-66
2023/07/06 20:52:54;;;;;;;;;;;;;;;20.15;52.48;100039.19;10216129;28;783;-66
2023/07/06 20:57:51;;;;;;;;;;;;;;;20.14;52.32;100035.66;10216007;28;795;-65
2023/07/06 21:02:49;;;;;;;;;;;;;;;20.14;52.38;100037.47;10216336;28;1922;-67
2023/07/06 21:07:46;;;;;;;;;;;;;;;20.14;52.34;100046.25;10210985;28;834;-67
2023/07/06 21:12:44;;;;;;;;;;;;;;;20.14;52.26;100042.75;10208929;28;909;-66
2023/07/06 21:17:41;;;;;;;;;;;;;;;20.14;52.32;100048.03;10209902;28;964;-67
2023/07/06 21:22:39;;;;;;;;;;;;;;;20.13;52.34;100047.19;10209014;28;1907;-67
2023/07/06 21:27:37;;;;;;;;;;;;;;;20.15;52.27;100052.44;10208927;28;868;-67
2023/07/06 21:32:34;;;;;;;;;;;;;;;20.15;52.36;100055.06;10208832;28;1178;-67
2023/07/06 21:37:32;;;;;;;;;;;;;;;20.15;52.44;100052.44;10208480;28;782;-67
2023/07/06 21:42:29;;;;;;;;;;;;;;;20.13;52.39;100057.78;10208203;28;1961;-66
2023/07/06 21:47:27;;;;;;;;;;;;;;;20.13;52.48;100062.22;10207654;28;863;-66
2023/07/06 21:52:25;;;;;;;;;;;;;;;20.12;52.58;100064.00;10207961;28;853;-67
2023/07/06 21:57:22;;;;;;;;;;;;;;;20.12;52.37;100068.44;10207764;28;870;-67
2023/07/06 22:02:20;;;;;;;;;;;;;;;20.11;52.52;100078.16;10207508;28;1957;-67
2023/07/06 22:07:17;;;;;;;;;;;;;;;20.12;52.42;100081.66;10208208;28;830;-63
2023/07/06 22:12:15;;;;;;;;;;;;;;;20.08;52.46;100086.25;10207901;28;840;-63
2023/07/06 22:17:13;;;;;;;;;;;;;;;20.07;52.29;100075.75;10206082;28;925;-63
2023/07/06 22:22:10;;;;;;;;;;;;;;;20.06;52.49;100081.97;10207346;28;1952;-63
2023/07/06 22:27:08;;;;;;;;;;;;;;;20.13;52.54;100078.94;10207243;28;936;-70
2023/07/06 22:32:05;;;;;;;;;;;;;;;20.12;52.43;100081.66;10206890;28;1249;-71
2023/07/06 22:37:04;;;;;;;;;;;;;;;20.13;52.41;100083.38;10207037;28;806;-70
2023/07/06 22:42:01;;;;;;;;;;;;;;;20.12;52.51;100082.53;10206653;28;1918;-70
2023/07/06 22:46:59;;;;;;;;;;;;;;;20.13;52.50;100083.38;10206658;28;818;-70
2023/07/06 22:51:59;;;;;;;;;;;;;;;20.12;52.42;100086.94;10205345;28;917;-70
2023/07/06 22:56:57;;;;;;;;;;;;;;;20.11;52.44;100088.75;10205020;28;1077;-70
2023/07/06 23:01:55;;;;;;;;;;;;;;;20.11;52.32;100085.25;10205308;28;1902;-70
2023/07/06 23:06:52;;;;;;;;;;;;;;;20.10;52.32;100088.84;10205863;28;947;-70
2023/07/06 23:11:50;;;;;;;;;;;;;;;20.10;52.46;100094.13;10205750;28;866;-71
2023/07/06 23:16:47;;;;;;;;;;;;;;;20.11;52.35;100093.19;10204931;28;831;-70
2023/07/06 23:21:45;;;;;;;;;;;;;;;20.10;52.30;100096.78;10205349;28;1959;-70
2023/07/06 23:26:43;;;;;;;;;;;;;;;20.10;52.46;100094.97;10205291;28;986;-71
2023/07/06 23:31:42;;;;;;;;;;;;;;;20.10;52.46;100102.91;10203922;28;1391;-71
2023/07/06 23:36:40;;;;;;;;;;;;;;;20.10;52.36;100108.22;10204687;28;915;-70
2023/07/06 23:41:37;;;;;;;;;;;;;;;20.08;52.23;100102.13;10204114;28;1906;-70
2023/07/06 23:46:35;;;;;;;;;;;;;;;20.07;52.43;100111.00;10204689;28;860;-70
2023/07/06 23:51:32;;;;;;;;;;;;;;;20.07;52.30;100110.16;10203636;28;954;-70
2023/07/06 23:56:30;;;;;;;;;;;;;;;20.06;52.35;100111.06;10203925;28;893;-70
